createdAt,value
2019-06-07T00:01:54.294Z,10.20
2019-06-07T00:04:24.833Z,10.43
2019-06-07T00:06:58.860Z,10.73
2019-06-07T00:09:29.481Z,10.37
2019-06-07T00:12:00.347Z,11.77
2019-06-07T00:14:30.992Z,10.20
2019-06-07T00:17:01.652Z,9.97
2019-06-07T00:19:33.083Z,12.53
2019-06-07T00:22:17.682Z,12.57
2019-06-07T00:24:35.993Z,14.07
2019-06-07T00:27:06.652Z,10.77
2019-06-07T00:29:38.378Z,10.20
2019-06-07T00:32:09.270Z,10.07
2019-06-07T00:34:40.334Z,10.60
2019-06-07T00:37:12.307Z,11.23
2019-06-07T00:39:43.416Z,12.53
2019-06-07T00:42:18.608Z,11.33
2019-06-07T00:44:50.170Z,11.13
2019-06-07T00:47:23.628Z,14.10
2019-06-07T00:49:52.180Z,12.27
2019-06-07T00:53:12.842Z,11.30
2019-06-07T00:54:55.495Z,11.40
2019-06-07T00:57:27.743Z,10.97
2019-06-07T01:00:02.102Z,11.43
2019-06-07T01:02:34.758Z,11.07
2019-06-07T01:05:07.896Z,10.77
2019-06-07T01:07:39.137Z,12.23
2019-06-07T01:10:16.156Z,13.87
2019-06-07T01:12:46.370Z,11.43
2019-06-07T01:15:22.227Z,10.80
2019-06-07T01:18:33.214Z,11.27
2019-06-07T01:20:26.663Z,11.40
2019-06-07T01:22:56.981Z,13.57
2019-06-07T01:25:29.061Z,13.07
2019-06-07T01:27:59.936Z,12.50
2019-06-07T01:36:19.565Z,11.17
2019-06-07T01:38:50.688Z,13.70
2019-06-07T01:41:24.826Z,11.70
2019-06-07T01:43:54.525Z,13.97
2019-06-07T01:46:26.704Z,12.40
2019-06-07T01:48:58.619Z,11.67
2019-06-07T01:51:30.902Z,12.37
2019-06-07T01:54:48.739Z,11.80
2019-06-07T01:56:34.080Z,12.63
2019-06-07T01:59:04.762Z,12.23
2019-06-07T02:01:35.624Z,12.37
2019-06-07T02:04:07.117Z,13.07
2019-06-07T02:06:37.719Z,11.97
2019-06-07T02:09:09.101Z,14.73
2019-06-07T02:11:41.730Z,12.70
2019-06-07T02:14:12.795Z,11.93
2019-06-07T02:16:45.231Z,12.17
2019-06-07T02:19:16.276Z,11.80
2019-06-07T02:21:50.686Z,12.23
2019-06-07T02:24:24.922Z,12.27
2019-06-07T02:26:54.315Z,12.27
2019-06-07T02:29:25.510Z,12.90
2019-06-07T02:31:57.583Z,15.07
2019-06-07T02:34:38.388Z,13.73
2019-06-07T02:37:03.621Z,13.17
2019-06-07T02:39:40.509Z,17.10
2019-06-07T02:42:10.855Z,12.57
2019-06-07T02:44:42.403Z,15.40
2019-06-07T02:47:12.969Z,12.53
2019-06-07T02:49:44.614Z,12.07
2019-06-07T02:52:15.832Z,13.87
2019-06-07T02:54:46.457Z,14.97
2019-06-07T02:57:17.492Z,13.63
2019-06-07T03:00:07.091Z,12.87
2019-06-07T03:02:21.898Z,13.60
2019-06-07T03:04:52.658Z,15.00
2019-06-07T03:07:27.699Z,16.50
2019-06-07T03:09:58.209Z,17.27
2019-06-07T03:12:33.565Z,14.07
2019-06-07T03:15:06.995Z,13.80
2019-06-07T03:17:46.734Z,13.00
2019-06-07T03:20:19.031Z,16.17
2019-06-07T03:22:51.773Z,13.23
2019-06-07T03:25:23.293Z,15.80
2019-06-07T03:27:53.928Z,16.60
2019-06-07T03:31:00.389Z,18.03
2019-06-07T03:32:56.863Z,15.07
2019-06-07T03:35:30.998Z,16.13
2019-06-07T03:41:00.831Z,13.93
2019-06-07T03:43:35.019Z,14.53
2019-06-07T03:46:05.666Z,15.67
2019-06-07T03:48:40.997Z,17.47
2019-06-07T03:51:24.824Z,16.63
2019-06-07T03:53:47.868Z,20.90
2019-06-07T03:56:18.433Z,19.40
2019-06-07T03:58:50.434Z,18.30
2019-06-07T04:01:21.320Z,18.43
2019-06-07T04:03:59.242Z,15.77
2019-06-07T04:06:32.498Z,14.20
2019-06-07T04:09:06.932Z,15.00
2019-06-07T04:11:39.478Z,19.43
2019-06-07T04:14:09.956Z,17.47
2019-06-07T04:16:44.561Z,17.13
2019-06-07T04:19:14.563Z,15.17
2019-06-07T04:21:45.062Z,17.10
2019-06-07T04:24:15.625Z,17.40
2019-06-07T04:26:46.840Z,17.07
2019-06-07T04:29:41.582Z,16.00
2019-06-07T04:31:49.830Z,18.30
2019-06-07T04:34:20.478Z,19.17
2019-06-07T04:36:59.154Z,16.80
2019-06-07T04:39:25.995Z,18.13
2019-06-07T04:41:58.968Z,17.63
2019-06-07T04:44:31.119Z,19.87
2019-06-07T04:47:06.598Z,26.63
2019-06-07T04:49:43.435Z,19.57
2019-06-07T04:52:13.763Z,18.47
2019-06-07T04:54:45.959Z,19.57
2019-06-07T04:57:16.690Z,17.60
2019-06-07T05:00:12.129Z,18.63
2019-06-07T05:02:20.056Z,18.13
2019-06-07T05:04:50.559Z,20.83
2019-06-07T05:07:21.106Z,18.53
2019-06-07T05:09:51.570Z,20.27
2019-06-07T05:12:22.206Z,18.67
2019-06-07T05:14:54.209Z,19.10
2019-06-07T05:17:24.836Z,18.20
2019-06-07T05:19:55.361Z,19.00
2019-06-07T05:22:25.952Z,20.27
2019-06-07T05:24:56.451Z,29.73
2019-06-07T05:27:27.115Z,24.17
2019-06-07T05:30:13.284Z,16.43
2019-06-07T05:32:32.906Z,19.20
2019-06-07T05:35:03.019Z,20.27
2019-06-07T05:37:34.300Z,18.77
2019-06-07T05:40:09.321Z,23.17
2019-06-07T05:42:46.645Z,15.80
2019-06-07T05:45:22.081Z,14.13
2019-06-07T05:47:54.958Z,14.40
2019-06-07T05:50:39.019Z,15.17
2019-06-07T05:53:00.076Z,16.07
2019-06-07T05:55:30.718Z,15.80
2019-06-07T05:58:01.366Z,13.60
2019-06-07T06:00:34.700Z,11.73
2019-06-07T06:03:06.077Z,13.30
2019-06-07T06:05:42.358Z,12.40
2019-06-07T06:08:10.126Z,12.97
2019-06-07T06:10:46.243Z,12.20
2019-06-07T06:13:13.078Z,8.63
2019-06-07T06:15:56.436Z,9.80
2019-06-07T06:18:16.744Z,17.03
2019-06-07T06:21:09.821Z,10.50
2019-06-07T06:23:19.664Z,10.20
2019-06-07T06:25:56.624Z,10.87
2019-06-07T06:28:22.642Z,12.93
2019-06-07T06:30:53.360Z,9.10
2019-06-07T06:33:33.507Z,9.20
2019-06-07T06:35:56.269Z,9.80
2019-06-07T06:38:27.780Z,6.67
2019-06-07T06:41:14.384Z,9.87
2019-06-07T06:43:30.683Z,8.60
2019-06-07T06:46:01.457Z,9.50
2019-06-07T06:48:33.335Z,7.63
2019-06-07T06:51:04.590Z,7.50
2019-06-07T06:53:40.425Z,7.97
2019-06-07T06:56:11.405Z,8.93
2019-06-07T06:59:24.645Z,6.60
2019-06-07T07:01:14.635Z,5.27
2019-06-07T07:04:05.242Z,5.40
2019-06-07T07:06:26.469Z,6.17
2019-06-07T07:08:55.109Z,5.27
2019-06-07T07:11:25.721Z,4.27
2019-06-07T07:13:57.262Z,4.17
2019-06-07T07:16:27.840Z,3.80
2019-06-07T07:18:58.796Z,4.13
2019-06-07T07:21:29.433Z,3.73
2019-06-07T07:24:20.539Z,3.67
2019-06-07T07:26:32.767Z,5.57
2019-06-07T07:29:03.335Z,3.63
2019-06-07T07:31:33.974Z,3.33
2019-06-07T07:36:39.752Z,2.97
2019-06-07T07:39:10.408Z,2.90
2019-06-07T07:42:04.756Z,2.60
2019-06-07T07:44:14.099Z,2.90
2019-06-07T07:46:46.666Z,3.70
2019-06-07T07:49:22.452Z,2.80
2019-06-07T07:51:57.065Z,2.90
2019-06-07T07:54:25.572Z,3.27
2019-06-07T07:56:57.377Z,2.07
2019-06-07T07:59:41.926Z,2.70
2019-06-07T08:02:00.582Z,2.40
2019-06-07T08:05:12.957Z,2.37
2019-06-07T08:07:04.344Z,2.30
2019-06-07T08:09:34.956Z,4.63
2019-06-07T08:12:05.803Z,2.77
2019-06-07T08:14:36.378Z,2.20
2019-06-07T08:17:07.096Z,2.17
2019-06-07T08:19:37.494Z,2.17
2019-06-07T08:22:08.052Z,2.27
2019-06-07T08:24:38.584Z,2.13
2019-06-07T08:27:25.439Z,2.67
2019-06-07T08:29:45.536Z,2.70
2019-06-07T08:32:14.466Z,2.40
2019-06-07T08:34:45.939Z,2.60
2019-06-07T08:37:16.653Z,2.63
2019-06-07T08:39:50.358Z,2.20
2019-06-07T08:42:36.028Z,3.00
2019-06-07T08:44:57.194Z,3.23
2019-06-07T08:47:26.158Z,4.23
2019-06-07T08:50:08.936Z,2.93
2019-06-07T08:52:40.659Z,3.07
2019-06-07T08:55:11.704Z,3.00
2019-06-07T08:57:42.305Z,3.30
2019-06-07T09:00:45.228Z,3.17
2019-06-07T09:02:46.678Z,3.63
2019-06-07T09:05:19.517Z,4.40
2019-06-07T09:08:14.759Z,4.50
2019-06-07T09:10:22.338Z,4.17
2019-06-07T09:12:57.909Z,4.47
2019-06-07T09:15:25.455Z,4.20
2019-06-07T09:18:35.082Z,4.27
2019-06-07T09:20:41.951Z,4.93
2019-06-07T09:23:17.210Z,5.43
2019-06-07T09:25:57.070Z,6.27
2019-06-07T09:28:20.171Z,5.57
2019-06-07T09:30:50.908Z,5.53
2019-06-07T09:33:21.635Z,6.43
2019-06-07T09:35:52.574Z,6.80
2019-06-07T09:38:26.101Z,6.63
2019-06-07T09:40:57.393Z,6.20
2019-06-07T09:46:02.076Z,8.67
2019-06-07T09:49:09.746Z,6.20
2019-06-07T09:51:16.949Z,7.67
2019-06-07T09:53:37.884Z,8.73
2019-06-07T09:56:12.083Z,7.90
2019-06-07T09:58:52.658Z,8.70
2019-06-07T10:01:14.899Z,9.60
2019-06-07T10:03:45.408Z,8.70
2019-06-07T10:06:16.061Z,9.70
2019-06-07T10:10:04.758Z,10.27
2019-06-07T10:11:18.929Z,9.93
2019-06-07T10:13:49.571Z,9.20
2019-06-07T10:16:20.112Z,8.87
2019-06-07T10:18:50.772Z,9.30
2019-06-07T10:21:22.258Z,10.63
2019-06-07T10:23:52.903Z,10.07
2019-06-07T10:26:23.507Z,10.63
2019-06-07T10:28:54.080Z,10.27
2019-06-07T10:31:24.706Z,11.27
2019-06-07T10:33:55.419Z,10.60
2019-06-07T10:36:25.946Z,10.80
2019-06-07T10:38:56.601Z,10.83
2019-06-07T10:41:27.223Z,10.57
2019-06-07T10:43:57.662Z,11.80
2019-06-07T10:46:28.034Z,12.60
2019-06-07T10:48:58.568Z,11.63
2019-06-07T10:51:29.913Z,11.53
2019-06-07T10:54:06.081Z,12.07
2019-06-07T10:56:33.042Z,12.03
2019-06-07T10:59:05.105Z,14.13
2019-06-07T11:01:35.907Z,11.33
2019-06-07T11:04:07.786Z,11.33
2019-06-07T11:06:39.107Z,10.90
2019-06-07T11:09:10.083Z,10.23
2019-06-07T11:11:40.649Z,11.43
2019-06-07T11:14:12.742Z,11.57
2019-06-07T11:16:43.376Z,10.97
2019-06-07T11:19:17.379Z,12.20
2019-06-07T11:21:46.225Z,11.50
2019-06-07T11:24:23.686Z,11.50
2019-06-07T11:26:50.097Z,11.17
2019-06-07T11:29:20.749Z,11.33
2019-06-07T11:31:51.363Z,12.60
2019-06-07T11:34:22.007Z,10.97
2019-06-07T11:36:52.560Z,10.00
2019-06-07T11:39:23.284Z,12.03
2019-06-07T11:41:53.900Z,10.30
2019-06-07T11:44:25.402Z,10.73
2019-06-07T11:46:56.124Z,11.80
2019-06-07T11:49:26.797Z,12.03
2019-06-07T11:51:58.739Z,13.23
2019-06-07T11:54:29.455Z,14.33
2019-06-07T11:57:00.215Z,14.73
2019-06-07T11:59:31.263Z,14.80
2019-06-07T12:02:01.905Z,13.83
2019-06-07T12:04:35.088Z,13.57
2019-06-07T12:07:04.802Z,13.10
2019-06-07T12:09:35.697Z,14.03
2019-06-07T12:12:06.366Z,15.73
2019-06-07T12:14:37.404Z,15.73
2019-06-07T12:17:09.002Z,16.43
2019-06-07T12:19:39.806Z,15.83
2019-06-07T12:22:11.643Z,15.33
2019-06-07T12:24:42.937Z,16.20
2019-06-07T12:27:14.758Z,17.47
2019-06-07T12:29:45.519Z,18.10
2019-06-07T12:32:17.429Z,16.67
2019-06-07T12:34:48.061Z,16.57
2019-06-07T12:37:21.012Z,15.37
2019-06-07T12:39:50.958Z,15.97
2019-06-07T12:42:22.689Z,16.17
2019-06-07T12:44:53.479Z,17.13
2019-06-07T12:47:25.351Z,15.33
2019-06-07T12:49:56.017Z,15.37
2019-06-07T12:52:27.524Z,13.60
2019-06-07T12:54:58.124Z,14.20
2019-06-07T12:57:28.682Z,15.67
2019-06-07T12:59:59.610Z,14.77
2019-06-07T13:02:30.138Z,15.90
2019-06-07T13:05:04.527Z,15.23
2019-06-07T13:07:33.091Z,13.70
2019-06-07T13:10:04.972Z,13.77
2019-06-07T13:12:35.442Z,13.87
2019-06-07T13:15:10.515Z,15.17
2019-06-07T13:17:41.154Z,14.03
2019-06-07T13:20:12.684Z,12.57
2019-06-07T13:22:43.333Z,13.23
2019-06-07T13:25:16.318Z,14.17
2019-06-07T13:27:47.003Z,12.47
2019-06-07T13:30:21.661Z,11.63
2019-06-07T13:32:53.449Z,12.80
2019-06-07T13:35:25.347Z,12.10
2019-06-07T13:37:59.525Z,12.23
2019-06-07T13:40:29.019Z,12.83
2019-06-07T13:42:59.664Z,12.67
2019-06-07T13:45:30.252Z,13.57
2019-06-07T13:48:00.754Z,11.50
2019-06-07T13:50:31.245Z,11.57
2019-06-07T13:56:26.890Z,10.17
2019-06-07T13:58:59.765Z,10.93
2019-06-07T14:01:30.370Z,10.83
2019-06-07T14:04:00.900Z,11.93
2019-06-07T14:06:31.432Z,10.93
2019-06-07T14:09:02.068Z,10.20
2019-06-07T14:11:49.520Z,10.33
2019-06-07T14:14:05.353Z,10.37
2019-06-07T14:16:35.976Z,9.83
2019-06-07T14:19:06.596Z,9.83
2019-06-07T14:21:37.329Z,10.93
2019-06-07T14:24:08.007Z,11.70
2019-06-07T14:26:38.602Z,9.07
2019-06-07T14:29:09.141Z,10.27
2019-06-07T14:31:39.814Z,11.77
2019-06-07T14:34:10.477Z,12.67
2019-06-07T14:36:41.108Z,10.07
2019-06-07T14:39:11.740Z,9.10
2019-06-07T14:41:42.367Z,10.23
2019-06-07T14:44:13.055Z,8.57
2019-06-07T14:46:43.805Z,8.80
2019-06-07T14:49:14.513Z,8.20
2019-06-07T14:51:45.069Z,9.20
2019-06-07T14:54:15.723Z,10.97
2019-06-07T14:56:46.938Z,9.23
2019-06-07T14:59:18.983Z,8.90
2019-06-07T15:01:49.661Z,8.53
2019-06-07T15:04:20.365Z,10.97
2019-06-07T15:06:50.936Z,8.37
2019-06-07T15:09:21.589Z,8.73
2019-06-07T15:11:52.249Z,8.20
2019-06-07T15:14:23.609Z,14.60
2019-06-07T15:16:54.183Z,8.10
2019-06-07T15:19:28.902Z,10.13
2019-06-07T15:21:59.668Z,9.07
2019-06-07T15:24:33.675Z,8.60
2019-06-07T15:27:02.669Z,8.30
2019-06-07T15:29:33.850Z,10.37
2019-06-07T15:32:05.071Z,8.07
2019-06-07T15:34:36.322Z,8.97
2019-06-07T15:37:06.994Z,8.90
2019-06-07T15:39:38.543Z,11.97
2019-06-07T15:42:09.545Z,7.83
2019-06-07T15:44:40.632Z,9.00
2019-06-07T15:47:11.208Z,10.17
2019-06-07T15:49:41.833Z,10.33
2019-06-07T15:52:12.466Z,8.70
2019-06-07T15:54:43.025Z,9.67
2019-06-07T15:57:13.666Z,8.17
2019-06-07T15:59:47.908Z,8.37
2019-06-07T16:02:18.471Z,10.47
2019-06-07T16:04:49.130Z,10.50
2019-06-07T16:07:20.427Z,12.73
2019-06-07T16:09:51.056Z,8.67
2019-06-07T16:12:22.276Z,9.50
2019-06-07T16:14:52.925Z,8.40
2019-06-07T16:17:23.527Z,9.40
2019-06-07T16:19:54.133Z,8.73
2019-06-07T16:22:24.976Z,9.07
2019-06-07T16:24:55.530Z,10.10
2019-06-07T16:27:26.227Z,9.83
2019-06-07T16:29:56.813Z,9.73
2019-06-07T16:32:27.455Z,7.63
2019-06-07T16:34:58.271Z,9.47
2019-06-07T16:37:28.931Z,7.63
2019-06-07T16:39:59.594Z,8.10
2019-06-07T16:42:30.258Z,8.20
2019-06-07T16:45:00.953Z,8.33
2019-06-07T16:47:31.454Z,8.97
2019-06-07T16:50:02.970Z,7.90
2019-06-07T16:52:33.567Z,7.57
2019-06-07T16:55:07.917Z,7.73
2019-06-07T16:57:38.747Z,13.90
2019-06-07T17:00:17.011Z,8.43
2019-06-07T17:02:49.024Z,8.73
2019-06-07T17:05:19.963Z,13.67
2019-06-07T17:07:50.521Z,10.73
2019-06-07T17:10:23.305Z,10.30
2019-06-07T17:12:53.961Z,11.37
2019-06-07T17:15:25.770Z,10.80
2019-06-07T17:17:57.016Z,9.57
2019-06-07T17:20:27.827Z,8.73
2019-06-07T17:22:58.807Z,9.27
2019-06-07T17:25:29.402Z,8.37
2019-06-07T17:27:59.903Z,10.37
2019-06-07T17:30:30.510Z,10.73
2019-06-07T17:33:01.055Z,10.40
2019-06-07T17:35:31.610Z,28.77
2019-06-07T17:38:02.287Z,19.27
2019-06-07T17:40:32.931Z,10.90
2019-06-07T17:43:04.489Z,10.37
2019-06-07T17:45:35.120Z,14.90
2019-06-07T17:48:06.551Z,12.57
2019-06-07T17:50:37.203Z,15.40
2019-06-07T17:53:07.973Z,27.80
2019-06-07T17:55:39.960Z,10.87
2019-06-07T17:58:10.538Z,9.10
2019-06-07T18:00:51.180Z,11.87
2019-06-07T18:03:23.155Z,13.23
2019-06-07T18:05:55.171Z,14.47
2019-06-07T18:08:29.006Z,9.03
2019-06-07T18:10:59.561Z,13.53
2019-06-07T18:13:31.572Z,10.97
2019-06-07T18:16:02.672Z,13.27
2019-06-07T18:18:33.712Z,10.87
2019-06-07T18:21:04.346Z,10.83
2019-06-07T18:23:35.018Z,10.33
2019-06-07T18:26:06.213Z,10.17
2019-06-07T18:28:36.852Z,12.57
2019-06-07T18:31:10.459Z,10.70
2019-06-07T18:33:40.992Z,14.50
2019-06-07T18:36:11.789Z,12.30
2019-06-07T18:38:44.065Z,15.13
2019-06-07T18:41:14.693Z,10.27
2019-06-07T18:43:45.140Z,10.00
2019-06-07T18:46:15.668Z,12.77
2019-06-07T18:48:46.434Z,12.33
2019-06-07T18:51:17.108Z,11.20
2019-06-07T18:53:47.674Z,11.00
2019-06-07T18:56:18.892Z,11.20
2019-06-07T18:58:49.436Z,11.93
2019-06-07T19:01:20.996Z,13.93
2019-06-07T19:03:52.125Z,14.37
2019-06-07T19:06:22.923Z,11.10
2019-06-07T19:08:55.531Z,12.27
2019-06-07T19:11:26.343Z,11.10
2019-06-07T19:13:57.192Z,12.23
2019-06-07T19:16:27.869Z,17.33
2019-06-07T19:18:59.854Z,17.77
2019-06-07T19:21:32.422Z,13.77
2019-06-07T19:24:03.511Z,13.23
2019-06-07T19:26:34.578Z,15.60
2019-06-07T19:29:05.228Z,14.80
2019-06-07T19:31:35.817Z,14.17
2019-06-07T19:34:06.571Z,13.53
2019-06-07T19:36:48.423Z,15.87
2019-06-07T19:39:09.539Z,14.03
2019-06-07T19:41:40.198Z,13.07
2019-06-07T19:44:10.829Z,17.80
2019-06-07T19:46:41.511Z,15.17
2019-06-07T19:49:12.120Z,14.90
2019-06-07T19:51:42.772Z,21.73
2019-06-07T19:54:13.415Z,18.80
2019-06-07T19:56:46.092Z,16.00
2019-06-07T19:59:16.720Z,15.80
2019-06-07T20:01:49.581Z,16.93
2019-06-07T20:04:23.455Z,13.67
2019-06-07T20:06:54.186Z,20.77
2019-06-07T20:09:26.428Z,22.83
2019-06-07T20:11:58.394Z,15.50
2019-06-07T20:14:30.094Z,14.70
2019-06-07T20:17:03.323Z,14.10
2019-06-07T20:19:34.315Z,17.00
2019-06-07T20:22:05.513Z,14.10
2019-06-07T20:24:38.178Z,16.87
2019-06-07T20:27:08.840Z,13.90
2019-06-07T20:29:39.454Z,14.80
2019-06-07T20:32:10.100Z,18.40
2019-06-07T20:34:44.509Z,16.17
2019-06-07T20:37:13.024Z,13.47
2019-06-07T20:39:43.655Z,12.37
2019-06-07T20:42:14.711Z,14.37
2019-06-07T20:44:45.263Z,14.53
2019-06-07T20:47:15.860Z,16.57
2019-06-07T20:49:46.363Z,13.63
2019-06-07T20:52:16.883Z,19.17
2019-06-07T20:54:48.348Z,17.27
2019-06-07T20:57:19.000Z,16.83
2019-06-07T20:59:50.124Z,14.00
2019-06-07T21:02:21.623Z,15.07
2019-06-07T21:04:53.289Z,45.43
2019-06-07T21:07:23.975Z,13.33
2019-06-07T21:09:56.099Z,14.90
2019-06-07T21:12:26.594Z,14.77
2019-06-07T21:14:57.225Z,14.63
2019-06-07T21:17:27.756Z,14.30
2019-06-07T21:19:58.417Z,21.03
2019-06-07T21:22:29.035Z,15.07
2019-06-07T21:25:00.691Z,13.60
2019-06-07T21:27:31.472Z,21.13
2019-06-07T21:30:03.402Z,16.67
2019-06-07T21:32:34.069Z,14.27
2019-06-07T21:35:08.034Z,18.47
2019-06-07T21:37:38.813Z,23.90
2019-06-07T21:40:10.454Z,14.80
2019-06-07T21:42:41.010Z,18.80
2019-06-07T21:45:13.538Z,15.10
2019-06-07T21:47:44.359Z,16.03
2019-06-07T21:50:15.201Z,19.00
2019-06-07T21:52:45.948Z,16.70
2019-06-07T21:55:16.585Z,16.60
2019-06-07T21:57:48.277Z,15.57
2019-06-07T22:00:21.839Z,19.43
2019-06-07T22:02:53.326Z,16.27
2019-06-07T22:11:06.099Z,18.13
2019-06-07T22:13:37.941Z,14.97
2019-06-07T22:16:23.330Z,16.90
2019-06-07T22:18:41.112Z,14.00
2019-06-07T22:21:12.721Z,13.47
2019-06-07T22:23:43.869Z,13.93
2019-06-07T22:26:15.585Z,16.40
2019-06-07T22:28:46.244Z,17.90
2019-06-07T22:31:16.842Z,14.37
2019-06-07T22:33:47.434Z,16.57
2019-06-07T22:36:19.371Z,18.03
2019-06-07T22:38:50.089Z,16.73
2019-06-07T22:41:20.802Z,17.47
2019-06-07T22:43:51.276Z,19.70
2019-06-07T22:46:36.536Z,20.07
2019-06-07T22:48:54.384Z,16.47
2019-06-07T22:51:25.635Z,15.87
2019-06-07T22:53:56.213Z,13.57
2019-06-07T22:56:28.318Z,16.77
2019-06-07T22:58:58.969Z,16.60
2019-06-07T23:01:29.562Z,13.57
2019-06-07T23:04:00.957Z,17.17
2019-06-07T23:06:31.522Z,16.47
2019-06-07T23:09:02.141Z,15.03
2019-06-07T23:11:32.637Z,18.63
2019-06-07T23:14:03.113Z,16.70
2019-06-07T23:16:33.643Z,19.23
2019-06-07T23:19:04.246Z,17.00
2019-06-07T23:21:34.886Z,15.47
2019-06-07T23:24:05.632Z,18.70
2019-06-07T23:26:36.181Z,19.73
2019-06-07T23:29:06.759Z,18.00
2019-06-07T23:31:37.383Z,18.87
2019-06-07T23:34:07.816Z,17.07
2019-06-07T23:36:38.437Z,16.13
2019-06-07T23:39:09.067Z,15.10
2019-06-07T23:41:39.546Z,15.23
2019-06-07T23:44:11.047Z,16.33
2019-06-07T23:46:41.855Z,18.43
2019-06-07T23:49:13.942Z,17.97
2019-06-07T23:51:44.666Z,15.70
2019-06-07T23:54:15.686Z,16.03
2019-06-07T23:56:46.323Z,14.07
2019-06-07T23:59:18.064Z,15.23
